createdAt,value
2017-12-22T00:00:07.655Z,74.66
2017-12-22T00:01:16.479Z,74.66
2017-12-22T00:02:25.312Z,74.85
2017-12-22T00:03:34.288Z,74.75
2017-12-22T00:04:43.116Z,74.66
2017-12-22T00:05:51.942Z,75.13
2017-12-22T00:07:00.769Z,75.04
2017-12-22T00:08:09.598Z,75.6
2017-12-22T00:09:18.531Z,74.94
2017-12-22T00:10:27.362Z,75.32
2017-12-22T00:11:36.188Z,75.42
2017-12-22T00:12:45.016Z,74.56
2017-12-22T00:13:53.845Z,75.51
2017-12-22T00:15:02.676Z,75.13
2017-12-22T00:16:11.780Z,75.32
2017-12-22T00:17:20.606Z,75.19
2017-12-22T00:18:29.434Z,75.28
2017-12-22T00:19:38.260Z,75.32
2017-12-22T00:20:47.389Z,75.95
2017-12-22T00:21:56.216Z,76.08
2017-12-22T00:23:05.044Z,75.79
2017-12-22T00:24:13.870Z,76.27
2017-12-22T00:25:22.696Z,75.67
2017-12-22T00:26:31.525Z,75.67
2017-12-22T00:27:40.352Z,75.38
2017-12-22T00:28:49.178Z,75.38
2017-12-22T00:29:58.280Z,75.47
2017-12-22T00:31:07.647Z,75.76
2017-12-22T00:32:16.476Z,75.67
2017-12-22T00:33:25.305Z,75.57
2017-12-22T00:34:34.132Z,75.85
2017-12-22T00:35:42.961Z,75.76
2017-12-22T00:36:51.789Z,75.89
2017-12-22T00:38:00.917Z,75.99
2017-12-22T00:39:09.746Z,75.76
2017-12-22T00:40:18.573Z,75.76
2017-12-22T00:41:27.401Z,75.76
2017-12-22T00:42:36.330Z,75.67
2017-12-22T00:43:45.205Z,75.67
2017-12-22T00:44:54.033Z,75.85
2017-12-22T00:46:02.860Z,75.79
2017-12-22T00:47:11.692Z,75.99
2017-12-22T00:48:20.801Z,75.57
2017-12-22T00:49:29.779Z,75.57
2017-12-22T00:50:38.883Z,75.67
2017-12-22T00:51:47.988Z,75.95
2017-12-22T00:52:56.815Z,75.76
2017-12-22T00:54:05.641Z,75.47
2017-12-22T00:55:14.716Z,75.7
2017-12-22T00:56:23.542Z,75.76
2017-12-22T00:57:32.370Z,75.67
2017-12-22T00:58:41.196Z,75.67
2017-12-22T00:59:50.023Z,75.57
2017-12-22T01:00:58.850Z,75.85
2017-12-22T01:02:07.954Z,75.95
2017-12-22T01:03:16.781Z,75.67
2017-12-22T01:04:25.612Z,75.67
2017-12-22T01:05:34.441Z,75.85
2017-12-22T01:06:43.268Z,75.76
2017-12-22T01:07:52.101Z,75.95
2017-12-22T01:09:00.929Z,75.76
2017-12-22T01:10:09.757Z,75.76
2017-12-22T01:11:18.867Z,75.76
2017-12-22T01:12:27.741Z,75.76
2017-12-22T01:13:36.571Z,75.85
2017-12-22T01:14:45.677Z,75.57
2017-12-22T01:15:54.785Z,75.47
2017-12-22T01:17:03.611Z,75.57
2017-12-22T01:18:12.638Z,75.57
2017-12-22T01:19:21.480Z,75.76
2017-12-22T01:20:30.585Z,75.57
2017-12-22T01:21:39.411Z,75.47
2017-12-22T01:22:48.240Z,75.67
2017-12-22T01:23:57.344Z,75.57
2017-12-22T01:25:06.176Z,75.47
2017-12-22T01:26:14.996Z,75.57
2017-12-22T01:27:23.821Z,75.95
2017-12-22T01:28:32.930Z,75.57
2017-12-22T01:29:42.059Z,75.57
2017-12-22T01:30:50.886Z,75.67
2017-12-22T01:31:59.715Z,75.67
2017-12-22T01:33:08.546Z,76.04
2017-12-22T01:34:17.369Z,76.14
2017-12-22T01:35:26.345Z,75.76
2017-12-22T01:36:35.450Z,75.76
2017-12-22T01:37:44.278Z,75.76
2017-12-22T01:38:53.104Z,76.04
2017-12-22T01:40:01.931Z,75.76
2017-12-22T01:41:10.907Z,76.04
2017-12-22T01:42:19.735Z,75.95
2017-12-22T01:43:28.561Z,75.76
2017-12-22T01:44:37.389Z,76.23
2017-12-22T01:45:46.216Z,76.04
2017-12-22T01:46:55.095Z,75.38
2017-12-22T01:48:03.921Z,76.04
2017-12-22T01:49:12.746Z,75.95
2017-12-22T01:50:21.572Z,76.04
2017-12-22T01:51:30.400Z,75.95
2017-12-22T01:52:39.652Z,75.95
2017-12-22T01:53:48.487Z,76.04
2017-12-22T01:54:57.303Z,75.76
2017-12-22T01:56:06.130Z,76.32
2017-12-22T01:57:14.960Z,76.14
2017-12-22T01:58:23.839Z,76.04
2017-12-22T01:59:32.664Z,76.04
2017-12-22T02:00:41.492Z,76.04
2017-12-22T02:01:50.318Z,76.14
2017-12-22T02:02:59.423Z,76.23
2017-12-22T02:04:08.520Z,75.95
2017-12-22T02:05:17.350Z,76.04
2017-12-22T02:06:26.176Z,75.85
2017-12-22T02:07:35.001Z,76.23
2017-12-22T02:08:43.825Z,76.04
2017-12-22T02:09:52.952Z,76.23
2017-12-22T02:11:01.779Z,75.95
2017-12-22T02:12:10.605Z,75.95
2017-12-22T02:13:19.702Z,76.04
2017-12-22T02:14:28.531Z,76.04
2017-12-22T02:15:37.357Z,76.04
2017-12-22T02:16:46.196Z,76.23
2017-12-22T02:17:55.009Z,76.14
2017-12-22T02:19:03.835Z,76.14
2017-12-22T02:20:12.662Z,76.04
2017-12-22T02:21:21.867Z,75.95
2017-12-22T02:22:30.692Z,76.23
2017-12-22T02:23:39.516Z,76.01
2017-12-22T02:24:48.343Z,75.95
2017-12-22T02:25:57.171Z,76.14
2017-12-22T02:27:05.996Z,76.1
2017-12-22T02:28:14.822Z,76.01
2017-12-22T02:29:23.921Z,76.14
2017-12-22T02:30:32.752Z,76.23
2017-12-22T02:31:41.852Z,76.42
2017-12-22T02:32:50.928Z,76.04
2017-12-22T02:33:59.752Z,76.32
2017-12-22T02:35:08.854Z,76.1
2017-12-22T02:36:17.686Z,76.1
2017-12-22T02:37:26.508Z,76.14
2017-12-22T02:38:35.482Z,76.04
2017-12-22T02:39:44.312Z,75.85
2017-12-22T02:40:53.135Z,75.95
2017-12-22T02:42:01.962Z,75.91
2017-12-22T02:43:10.788Z,75.57
2017-12-22T02:44:19.616Z,75.15
2017-12-22T02:45:28.442Z,75.72
2017-12-22T02:46:37.268Z,75.81
2017-12-22T02:47:46.387Z,75.67
2017-12-22T02:48:55.219Z,75.53
2017-12-22T02:50:04.192Z,75.53
2017-12-22T02:51:13.021Z,75.53
2017-12-22T02:52:22.121Z,75
2017-12-22T02:53:30.944Z,75
2017-12-22T02:54:40.047Z,75
2017-12-22T02:55:49.173Z,75.05
2017-12-22T02:56:58.000Z,74.96
2017-12-22T02:58:06.824Z,75.05
2017-12-22T02:59:15.651Z,75.28
2017-12-22T03:00:24.760Z,75.05
2017-12-22T03:01:33.837Z,75.28
2017-12-22T03:02:42.663Z,74.96
2017-12-22T03:03:51.491Z,75.19
2017-12-22T03:05:00.317Z,74.96
2017-12-22T03:06:09.143Z,75.34
2017-12-22T03:07:18.170Z,75.34
2017-12-22T03:08:27.273Z,75.05
2017-12-22T03:09:36.106Z,75.05
2017-12-22T03:10:44.934Z,75.24
2017-12-22T03:11:53.761Z,75.24
2017-12-22T03:13:02.686Z,75.24
2017-12-22T03:14:11.512Z,75.19
2017-12-22T03:15:20.338Z,75.72
2017-12-22T03:16:29.166Z,75.53
2017-12-22T03:17:37.992Z,75.53
2017-12-22T03:18:46.818Z,75.72
2017-12-22T03:19:55.644Z,75.62
2017-12-22T03:21:04.471Z,75.62
2017-12-22T03:22:13.569Z,75.95
2017-12-22T03:23:22.396Z,75.53
2017-12-22T03:24:31.373Z,75.91
2017-12-22T03:25:40.200Z,75.91
2017-12-22T03:26:49.027Z,75.43
2017-12-22T03:27:57.852Z,76.39
2017-12-22T03:29:06.681Z,76.01
2017-12-22T03:30:15.513Z,76.39
2017-12-22T03:31:24.338Z,76.1
2017-12-22T03:32:33.164Z,76.14
2017-12-22T03:33:41.990Z,76.1
2017-12-22T03:34:50.817Z,76.1
2017-12-22T03:35:59.646Z,76.39
2017-12-22T03:37:08.470Z,76.42
2017-12-22T03:38:17.299Z,76.39
2017-12-22T03:39:26.123Z,76.04
2017-12-22T03:40:34.949Z,76.23
2017-12-22T03:41:43.874Z,76.39
2017-12-22T03:42:52.701Z,76.23
2017-12-22T03:44:01.530Z,76.42
2017-12-22T03:45:10.356Z,76.2
2017-12-22T03:46:19.181Z,76.52
2017-12-22T03:47:28.285Z,76.23
2017-12-22T03:48:37.112Z,76.99
2017-12-22T03:49:45.938Z,76.48
2017-12-22T03:50:54.763Z,76.23
2017-12-22T03:52:03.865Z,76.29
2017-12-22T03:53:12.993Z,76.29
2017-12-22T03:54:22.091Z,76.32
2017-12-22T03:55:31.196Z,76.76
2017-12-22T03:56:40.022Z,76.23
2017-12-22T03:57:48.847Z,76.48
2017-12-22T03:58:57.973Z,76.9
2017-12-22T04:00:06.801Z,76.76
2017-12-22T04:01:15.639Z,76.2
2017-12-22T04:02:24.455Z,76.67
2017-12-22T04:03:33.557Z,76.57
2017-12-22T04:04:42.959Z,76.57
2017-12-22T04:05:51.785Z,76.67
2017-12-22T04:07:00.614Z,76.67
2017-12-22T04:08:09.439Z,76.67
2017-12-22T04:09:18.542Z,76.57
2017-12-22T04:10:27.948Z,76.39
2017-12-22T04:11:36.776Z,76.57
2017-12-22T04:12:45.602Z,76.48
2017-12-22T04:13:54.433Z,76.67
2017-12-22T04:15:03.533Z,76.39
2017-12-22T04:16:12.358Z,76.67
2017-12-22T04:17:21.186Z,76.39
2017-12-22T04:18:30.018Z,76.48
2017-12-22T04:19:39.401Z,76.67
2017-12-22T04:20:48.497Z,76.57
2017-12-22T04:21:57.471Z,76.48
2017-12-22T04:23:06.297Z,76.48
2017-12-22T04:24:15.124Z,76.48
2017-12-22T04:25:24.223Z,76.67
2017-12-22T04:26:33.048Z,76.57
2017-12-22T04:27:42.022Z,76.48
2017-12-22T04:28:51.126Z,76.76
2017-12-22T04:29:59.953Z,77.56
2017-12-22T04:31:09.066Z,77.56
2017-12-22T04:32:17.880Z,77.84
2017-12-22T04:33:27.007Z,77.62
2017-12-22T04:34:35.830Z,77.81
2017-12-22T04:35:44.656Z,77.33
2017-12-22T04:36:53.485Z,77.33
2017-12-22T04:38:02.307Z,77.33
2017-12-22T04:39:11.132Z,77.62
2017-12-22T04:40:19.961Z,77.43
2017-12-22T04:41:28.785Z,77.33
2017-12-22T04:42:37.610Z,77.33
2017-12-22T04:43:46.712Z,77.52
2017-12-22T04:44:55.558Z,77.52
2017-12-22T04:46:04.365Z,77.14
2017-12-22T04:47:13.191Z,77.43
2017-12-22T04:48:22.018Z,77.43
2017-12-22T04:49:30.845Z,77.24
2017-12-22T04:50:39.822Z,77.52
2017-12-22T04:51:48.648Z,77.43
2017-12-22T04:52:57.474Z,77.33
2017-12-22T04:54:06.301Z,77.14
2017-12-22T04:55:15.125Z,77.33
2017-12-22T04:56:23.952Z,77.43
2017-12-22T04:57:32.780Z,77.52
2017-12-22T04:58:41.607Z,77.14
2017-12-22T04:59:50.433Z,76.95
2017-12-22T05:00:59.262Z,76.95
2017-12-22T05:02:08.190Z,76.76
2017-12-22T05:03:17.016Z,76.67
2017-12-22T05:04:25.843Z,76.39
2017-12-22T05:05:34.667Z,76.48
2017-12-22T05:06:43.494Z,76.57
2017-12-22T05:07:52.620Z,76.39
2017-12-22T05:09:01.447Z,76.48
2017-12-22T05:10:10.274Z,76.67
2017-12-22T05:11:19.105Z,76.86
2017-12-22T05:12:27.929Z,76.29
2017-12-22T05:13:36.756Z,76.29
2017-12-22T05:14:45.582Z,76.76
2017-12-22T05:15:54.408Z,76.76
2017-12-22T05:17:03.237Z,76.76
2017-12-22T05:18:12.336Z,77.14
2017-12-22T05:19:21.312Z,77.24
2017-12-22T05:20:30.140Z,77.33
2017-12-22T05:21:38.978Z,77.33
2017-12-22T05:22:47.796Z,77.33
2017-12-22T05:23:56.621Z,76.95
2017-12-22T05:25:05.450Z,77.33
2017-12-22T05:26:14.275Z,77.14
2017-12-22T05:27:23.376Z,77.24
2017-12-22T05:28:32.205Z,77.52
2017-12-22T05:29:41.039Z,77.52
2017-12-22T05:30:49.857Z,77.33
2017-12-22T05:31:58.684Z,77.33
2017-12-22T05:33:07.510Z,77.24
2017-12-22T05:34:16.387Z,77.62
2017-12-22T05:35:25.211Z,77.9
2017-12-22T05:36:34.036Z,77.81
2017-12-22T05:37:42.861Z,77.71
2017-12-22T05:38:51.685Z,77.71
2017-12-22T05:40:00.510Z,78.38
2017-12-22T05:41:09.336Z,78.56
2017-12-22T05:42:18.312Z,78.19
2017-12-22T05:43:27.138Z,78.47
2017-12-22T05:44:35.965Z,78.28
2017-12-22T05:45:44.791Z,78.19
2017-12-22T05:46:53.620Z,78.05
2017-12-22T05:48:02.727Z,78.24
2017-12-22T05:49:11.602Z,77.58
2017-12-22T05:50:20.706Z,77.81
2017-12-22T05:51:29.530Z,77.52
2017-12-22T05:52:38.357Z,77.11
2017-12-22T05:53:47.183Z,77.77
2017-12-22T05:54:56.009Z,77.11
2017-12-22T05:56:04.835Z,77.33
2017-12-22T05:57:13.663Z,77.52
2017-12-22T05:58:22.486Z,77.24
2017-12-22T05:59:31.360Z,77.33
2017-12-22T06:00:40.751Z,77.33
2017-12-22T06:01:49.573Z,77.33
2017-12-22T06:02:58.398Z,77.71
2017-12-22T06:04:07.225Z,77.81
2017-12-22T06:05:16.152Z,77.43
2017-12-22T06:06:24.977Z,77.33
2017-12-22T06:07:33.803Z,78.28
2017-12-22T06:08:42.631Z,77.43
2017-12-22T06:09:51.731Z,78.09
2017-12-22T06:11:00.559Z,78.38
2017-12-22T06:12:09.395Z,78.34
2017-12-22T06:13:18.218Z,78.28
2017-12-22T06:14:27.048Z,78.05
2017-12-22T06:15:35.877Z,78.24
2017-12-22T06:16:44.756Z,78.24
2017-12-22T06:17:53.582Z,78.09
2017-12-22T06:19:02.408Z,78.38
2017-12-22T06:20:11.234Z,78.38
2017-12-22T06:21:20.060Z,78.28
2017-12-22T06:22:29.037Z,78.09
2017-12-22T06:23:37.868Z,77.9
2017-12-22T06:24:46.693Z,78.19
2017-12-22T06:25:55.525Z,78.66
2017-12-22T06:27:04.401Z,79.33
2017-12-22T06:28:13.363Z,79.04
2017-12-22T06:29:22.150Z,78.85
2017-12-22T06:30:30.979Z,78.75
2017-12-22T06:31:39.804Z,79.23
2017-12-22T06:32:48.628Z,79.61
2017-12-22T06:33:57.604Z,79.9
2017-12-22T06:35:06.435Z,80.65
2017-12-22T06:36:15.260Z,81.13
2017-12-22T06:37:24.086Z,81.13
2017-12-22T06:38:32.913Z,81.6
2017-12-22T06:39:41.739Z,81.23
2017-12-22T06:40:50.566Z,81.88
2017-12-22T06:41:59.390Z,81.09
2017-12-22T06:43:08.220Z,80.99
2017-12-22T06:44:17.048Z,80.99
2017-12-22T06:45:26.025Z,80.94
2017-12-22T06:46:34.850Z,80.94
2017-12-22T06:47:43.677Z,80.9
2017-12-22T06:48:52.504Z,81.09
2017-12-22T06:50:01.331Z,80.62
2017-12-22T06:51:10.308Z,80.52
2017-12-22T06:52:19.413Z,80.52
2017-12-22T06:53:28.240Z,80.8
2017-12-22T06:54:37.065Z,80.33
2017-12-22T06:55:45.891Z,80.62
2017-12-22T06:56:54.969Z,80.04
2017-12-22T06:58:03.796Z,80.43
2017-12-22T06:59:12.623Z,80.08
2017-12-22T07:00:21.450Z,80.37
2017-12-22T07:01:30.277Z,80.24
2017-12-22T07:02:39.203Z,80.33
2017-12-22T07:03:48.031Z,80.37
2017-12-22T07:04:56.868Z,80.65
2017-12-22T07:06:05.696Z,80.65
2017-12-22T07:07:14.794Z,80.75
2017-12-22T07:08:23.723Z,80.65
2017-12-22T07:09:32.556Z,80.14
2017-12-22T07:10:41.383Z,80.99
2017-12-22T07:11:50.216Z,80.71
2017-12-22T07:12:59.317Z,80.37
2017-12-22T07:14:08.296Z,80.9
2017-12-22T07:15:17.396Z,80.71
2017-12-22T07:16:26.222Z,80.8
2017-12-22T07:17:35.053Z,80.8
2017-12-22T07:18:44.430Z,80.8
2017-12-22T07:19:53.358Z,80.24
2017-12-22T07:21:02.184Z,80.43
2017-12-22T07:22:11.011Z,80.24
2017-12-22T07:23:19.837Z,80.56
2017-12-22T07:24:28.666Z,80.62
2017-12-22T07:25:37.644Z,80.84
2017-12-22T07:26:46.471Z,81.04
2017-12-22T07:27:55.300Z,81.13
2017-12-22T07:29:04.128Z,80.71
2017-12-22T07:30:12.955Z,80.71
2017-12-22T07:31:21.888Z,80.75
2017-12-22T07:32:30.711Z,80.56
2017-12-22T07:33:39.539Z,80.56
2017-12-22T07:34:48.365Z,80.18
2017-12-22T07:35:57.191Z,80.27
2017-12-22T07:37:06.168Z,81.04
2017-12-22T07:38:14.995Z,81.23
2017-12-22T07:39:23.822Z,81.04
2017-12-22T07:40:32.651Z,81.13
2017-12-22T07:41:41.478Z,81.23
2017-12-22T07:42:50.461Z,81.88
2017-12-22T07:43:59.292Z,82.65
2017-12-22T07:45:08.126Z,81.88
2017-12-22T07:46:16.961Z,82.17
2017-12-22T07:47:26.061Z,82.36
2017-12-22T07:48:35.039Z,81.79
2017-12-22T07:49:43.868Z,82.27
2017-12-22T07:50:52.703Z,82.46
2017-12-22T07:52:01.525Z,82.17
2017-12-22T07:53:10.353Z,82.27
2017-12-22T07:54:19.180Z,81.79
2017-12-22T07:55:28.010Z,82.84
2017-12-22T07:56:36.849Z,83.03
2017-12-22T07:57:45.943Z,83.97
2017-12-22T07:58:55.045Z,83.78
2017-12-22T08:00:03.874Z,84.36
2017-12-22T08:01:12.701Z,84.36
2017-12-22T08:02:21.579Z,84.26
2017-12-22T08:03:30.409Z,84.36
2017-12-22T08:04:39.243Z,83.88
2017-12-22T08:05:48.068Z,83.74
2017-12-22T08:06:56.897Z,84.12
2017-12-22T08:08:05.781Z,83.74
2017-12-22T08:09:14.897Z,83.27
2017-12-22T08:10:23.725Z,83.46
2017-12-22T08:11:32.553Z,83.46
2017-12-22T08:12:41.446Z,83.46
2017-12-22T08:13:50.209Z,83.08
2017-12-22T08:14:59.037Z,83.08
2017-12-22T08:16:07.871Z,83.08
2017-12-22T08:17:16.752Z,83.17
2017-12-22T08:18:25.581Z,82.98
2017-12-22T08:19:34.416Z,83.08
2017-12-22T08:20:43.241Z,82.98
2017-12-22T08:21:52.069Z,83.27
2017-12-22T08:23:00.899Z,82.79
2017-12-22T08:24:09.726Z,82.7
2017-12-22T08:25:18.711Z,82.6
2017-12-22T08:26:27.541Z,82.32
2017-12-22T08:27:36.373Z,82.32
2017-12-22T08:28:45.473Z,82.89
2017-12-22T08:29:54.300Z,82.79
2017-12-22T08:31:03.278Z,82.13
2017-12-22T08:32:12.103Z,82.13
2017-12-22T08:33:21.205Z,82.32
2017-12-22T08:34:30.032Z,82.23
2017-12-22T08:35:38.862Z,82.32
2017-12-22T08:36:47.989Z,81.85
2017-12-22T08:37:56.814Z,81.94
2017-12-22T08:39:05.641Z,81.94
2017-12-22T08:40:14.477Z,81.75
2017-12-22T08:41:23.299Z,81.47
2017-12-22T08:42:32.129Z,82.04
2017-12-22T08:43:41.018Z,81.27
2017-12-22T08:44:49.846Z,81.47
2017-12-22T08:45:58.675Z,81.94
2017-12-22T08:47:07.507Z,81.75
2017-12-22T08:48:16.587Z,81.66
2017-12-22T08:49:25.692Z,81.47
2017-12-22T08:50:34.541Z,81.85
2017-12-22T08:51:43.369Z,81.94
2017-12-22T08:52:52.199Z,81.94
2017-12-22T08:54:01.375Z,81.75
2017-12-22T08:55:10.481Z,82.04
2017-12-22T08:56:19.307Z,82.04
2017-12-22T08:57:28.135Z,81.75
2017-12-22T08:58:36.990Z,81.75
2017-12-22T08:59:46.040Z,81.75
2017-12-22T09:00:55.177Z,81.66
2017-12-22T09:02:04.404Z,82.13
2017-12-22T09:03:13.244Z,81.94
2017-12-22T09:04:22.072Z,81.94
2017-12-22T09:05:31.228Z,81.94
2017-12-22T09:06:40.060Z,81.75
2017-12-22T09:07:48.912Z,82.04
2017-12-22T09:08:57.893Z,82.04
2017-12-22T09:10:06.740Z,81.94
2017-12-22T09:11:15.567Z,82.04
2017-12-22T09:12:24.396Z,81.94
2017-12-22T09:13:33.226Z,81.75
2017-12-22T09:14:42.060Z,82.13
2017-12-22T09:15:50.898Z,82.13
2017-12-22T09:16:59.736Z,81.85
2017-12-22T09:18:08.564Z,82.42
2017-12-22T09:19:17.400Z,82.13
2017-12-22T09:20:26.230Z,82.32
2017-12-22T09:21:35.056Z,82.13
2017-12-22T09:22:44.421Z,82.42
2017-12-22T09:23:53.254Z,82.51
2017-12-22T09:25:02.082Z,82.51
2017-12-22T09:26:11.190Z,82.32
2017-12-22T09:27:20.027Z,82.13
2017-12-22T09:28:28.905Z,82.32
2017-12-22T09:29:38.006Z,82.51
2017-12-22T09:30:47.121Z,82.32
2017-12-22T09:31:56.336Z,82.23
2017-12-22T09:33:05.218Z,82.04
2017-12-22T09:34:14.393Z,82.23
2017-12-22T09:35:23.221Z,82.23
2017-12-22T09:36:32.053Z,82.13
2017-12-22T09:37:40.908Z,82.13
2017-12-22T09:38:49.758Z,82.23
2017-12-22T09:39:58.848Z,81.94
2017-12-22T09:41:07.966Z,82.32
2017-12-22T09:42:17.093Z,82.32
2017-12-22T09:43:25.929Z,82.23
2017-12-22T09:44:34.797Z,82.13
2017-12-22T09:45:43.685Z,82.32
2017-12-22T09:46:52.510Z,82.32
2017-12-22T09:48:01.431Z,82.51
2017-12-22T09:49:10.251Z,82.32
2017-12-22T09:50:19.086Z,82.23
2017-12-22T09:51:27.915Z,82.04
2017-12-22T09:52:36.759Z,82.42
2017-12-22T09:53:45.591Z,82.32
2017-12-22T09:54:54.424Z,82.51
2017-12-22T09:56:03.530Z,82.32
2017-12-22T09:57:12.363Z,82.32
2017-12-22T09:58:21.213Z,82.55
2017-12-22T09:59:30.088Z,82.51
2017-12-22T10:00:38.918Z,82.79
2017-12-22T10:01:47.756Z,82.51
2017-12-22T10:02:56.969Z,82.51
2017-12-22T10:04:05.862Z,82.98
2017-12-22T10:05:14.694Z,82.6
2017-12-22T10:06:23.528Z,82.51
2017-12-22T10:07:32.643Z,82.6
2017-12-22T10:08:41.626Z,82.32
2017-12-22T10:09:50.457Z,82.32
2017-12-22T10:10:59.288Z,82.51
2017-12-22T10:12:08.496Z,82.46
2017-12-22T10:13:17.396Z,82.13
2017-12-22T10:14:26.330Z,82.55
2017-12-22T10:15:35.162Z,82.36
2017-12-22T10:16:43.992Z,82.36
2017-12-22T10:17:52.844Z,82.55
2017-12-22T10:19:01.707Z,82.46
2017-12-22T10:20:10.603Z,82.65
2017-12-22T10:21:19.449Z,82.84
2017-12-22T10:22:28.301Z,82.74
2017-12-22T10:23:37.137Z,82.84
2017-12-22T10:24:45.994Z,82.84
2017-12-22T10:25:54.897Z,82.55
2017-12-22T10:27:03.771Z,82.46
2017-12-22T10:28:12.637Z,82.65
2017-12-22T10:29:21.488Z,82.27
2017-12-22T10:30:30.600Z,82.74
2017-12-22T10:31:39.541Z,82.74
2017-12-22T10:32:48.372Z,82.74
2017-12-22T10:33:57.202Z,82.65
2017-12-22T10:35:06.054Z,82.84
2017-12-22T10:36:14.886Z,82.65
2017-12-22T10:37:23.814Z,82.84
2017-12-22T10:38:32.645Z,82.74
2017-12-22T10:39:41.484Z,83.03
2017-12-22T10:40:50.316Z,82.65
2017-12-22T10:41:59.165Z,82.65
2017-12-22T10:43:08.302Z,82.46
2017-12-22T10:44:17.132Z,82.65
2017-12-22T10:45:25.979Z,82.84
2017-12-22T10:46:34.807Z,82.84
2017-12-22T10:47:43.642Z,82.84
2017-12-22T10:48:52.482Z,82.84
2017-12-22T10:50:01.342Z,82.84
2017-12-22T10:51:10.172Z,82.84
2017-12-22T10:52:18.999Z,82.93
2017-12-22T10:53:27.826Z,83.31
2017-12-22T10:54:36.958Z,83.03
2017-12-22T10:55:45.789Z,82.84
2017-12-22T10:56:54.666Z,83.4
2017-12-22T10:58:03.499Z,83.31
2017-12-22T10:59:12.326Z,83.22
2017-12-22T11:00:21.464Z,83.31
2017-12-22T11:01:30.498Z,82.46
2017-12-22T11:02:39.326Z,83.22
2017-12-22T11:03:48.160Z,83.03
2017-12-22T11:04:56.999Z,82.65
2017-12-22T11:06:05.926Z,83.4
2017-12-22T11:07:14.760Z,83.12
2017-12-22T11:08:23.864Z,83.31
2017-12-22T11:09:32.693Z,83.31
2017-12-22T11:10:41.523Z,83.4
2017-12-22T11:11:50.662Z,83.22
2017-12-22T11:12:59.508Z,83.03
2017-12-22T11:14:08.394Z,83.03
2017-12-22T11:15:17.194Z,83.31
2017-12-22T11:16:26.023Z,83.4
2017-12-22T11:17:35.164Z,83.22
2017-12-22T11:18:44.000Z,83.4
2017-12-22T11:19:52.831Z,82.84
2017-12-22T11:21:01.658Z,83.4
2017-12-22T11:22:10.487Z,83.12
2017-12-22T11:23:19.315Z,83.22
2017-12-22T11:24:28.146Z,82.93
2017-12-22T11:25:37.252Z,82.55
2017-12-22T11:26:46.080Z,82.84
2017-12-22T11:27:54.917Z,83.03
2017-12-22T11:29:03.998Z,83.03
2017-12-22T11:30:12.846Z,83.03
2017-12-22T11:31:21.674Z,83.22
2017-12-22T11:32:30.513Z,83.12
2017-12-22T11:33:39.626Z,83.12
2017-12-22T11:34:48.506Z,82.93
2017-12-22T11:35:57.362Z,82.93
2017-12-22T11:37:06.194Z,82.65
2017-12-22T11:38:15.029Z,82.84
2017-12-22T11:39:23.862Z,83.12
2017-12-22T11:40:33.117Z,82.55
2017-12-22T11:41:41.949Z,82.84
2017-12-22T11:42:50.791Z,82.97
2017-12-22T11:43:59.651Z,82.84
2017-12-22T11:45:08.453Z,82.88
2017-12-22T11:46:17.584Z,82.74
2017-12-22T11:47:26.416Z,82.55
2017-12-22T11:48:35.795Z,82.78
2017-12-22T11:49:44.634Z,82.65
2017-12-22T11:50:53.464Z,82.65
2017-12-22T11:52:02.455Z,82.55
2017-12-22T11:53:11.293Z,82.65
2017-12-22T11:54:20.124Z,82.84
2017-12-22T11:55:28.955Z,82.78
2017-12-22T11:56:38.061Z,82.84
2017-12-22T11:57:46.894Z,82.84
2017-12-22T11:58:55.757Z,82.65
2017-12-22T12:00:04.584Z,83.03
2017-12-22T12:01:13.964Z,82.74
2017-12-22T12:02:22.794Z,82.84
2017-12-22T12:03:31.777Z,82.78
2017-12-22T12:04:40.608Z,82.69
2017-12-22T12:05:49.478Z,82.59
2017-12-22T12:06:58.365Z,82.69
2017-12-22T12:08:07.610Z,83.26
2017-12-22T12:09:16.637Z,83.26
2017-12-22T12:10:25.469Z,82.88
2017-12-22T12:11:34.297Z,83.26
2017-12-22T12:12:43.401Z,83.16
2017-12-22T12:13:52.230Z,83.45
2017-12-22T12:15:01.117Z,83.26
2017-12-22T12:16:09.941Z,83.07
2017-12-22T12:17:18.768Z,83.26
2017-12-22T12:18:27.597Z,83.36
2017-12-22T12:19:36.428Z,82.97
2017-12-22T12:20:45.306Z,83.45
2017-12-22T12:21:54.135Z,83.26
2017-12-22T12:23:02.966Z,83.07
2017-12-22T12:24:12.071Z,83.07
2017-12-22T12:25:20.900Z,82.97
2017-12-22T12:26:29.882Z,83.36
2017-12-22T12:27:38.711Z,83.26
2017-12-22T12:28:47.544Z,83.36
2017-12-22T12:29:56.648Z,83.16
2017-12-22T12:31:05.479Z,83.26
2017-12-22T12:32:14.356Z,83.36
2017-12-22T12:33:23.184Z,83.16
2017-12-22T12:34:32.014Z,83.26
2017-12-22T12:35:40.844Z,83.26
2017-12-22T12:36:49.677Z,83.54
2017-12-22T12:37:58.654Z,83.07
2017-12-22T12:39:07.982Z,83.16
2017-12-22T12:40:17.354Z,83.16
2017-12-22T12:41:26.188Z,83.26
2017-12-22T12:42:35.067Z,83.36
2017-12-22T12:45:23.409Z,83.54
2017-12-22T12:46:32.365Z,83.54
2017-12-22T12:47:41.271Z,83.36
2017-12-22T12:48:50.487Z,82.97
2017-12-22T12:49:59.372Z,83.45
2017-12-22T12:51:08.249Z,83.45
2017-12-22T12:52:17.410Z,82.97
2017-12-22T12:53:26.261Z,83.26
2017-12-22T12:54:35.395Z,83.26
2017-12-22T12:55:45.940Z,83.45
2017-12-22T12:56:55.082Z,83.36
2017-12-22T12:58:03.912Z,82.97
2017-12-22T12:59:13.085Z,83.45
2017-12-22T13:00:22.998Z,83.26
2017-12-22T13:01:32.345Z,83.36
2017-12-22T13:02:41.468Z,83.45
2017-12-22T13:03:50.551Z,83.45
2017-12-22T13:04:59.385Z,83.16
2017-12-22T13:06:08.349Z,83.07
2017-12-22T13:07:17.191Z,83.26
2017-12-22T13:08:26.328Z,83.26
2017-12-22T13:09:35.167Z,83.07
2017-12-22T13:10:44.059Z,83.07
2017-12-22T13:11:53.074Z,82.97
2017-12-22T13:13:02.175Z,83.07
2017-12-22T13:14:11.464Z,83.54
2017-12-22T13:15:20.323Z,83.54
2017-12-22T13:16:29.675Z,83.36
2017-12-22T13:17:38.759Z,83.45
2017-12-22T13:18:47.666Z,83.54
2017-12-22T13:19:56.495Z,83.45
2017-12-22T13:21:05.395Z,83.54
2017-12-22T13:22:14.277Z,83.54
2017-12-22T13:23:23.214Z,83.83
2017-12-22T13:24:32.393Z,83.54
2017-12-22T13:25:41.248Z,83.36
2017-12-22T13:26:50.368Z,83.54
2017-12-22T13:27:59.328Z,83.54
2017-12-22T13:29:08.970Z,83.54
2017-12-22T13:30:18.638Z,83.36
2017-12-22T13:31:27.471Z,83.54
2017-12-22T13:32:36.301Z,83.64
2017-12-22T13:33:45.611Z,83.45
2017-12-22T13:36:33.109Z,84.11
2017-12-22T13:37:41.951Z,83.92
2017-12-22T13:38:51.137Z,84.01
2017-12-22T13:41:39.087Z,84.21
2017-12-22T13:42:48.000Z,84.11
2017-12-22T13:43:57.086Z,84.3
2017-12-22T13:45:06.392Z,83.83
2017-12-22T13:46:15.558Z,84.3
2017-12-22T13:47:24.393Z,83.73
2017-12-22T13:48:33.237Z,84.01
2017-12-22T13:49:42.812Z,83.73
2017-12-22T13:50:51.645Z,84.4
2017-12-22T13:52:00.478Z,83.92
2017-12-22T13:53:09.306Z,83.92
2017-12-22T13:54:18.135Z,84.3
2017-12-22T13:55:26.964Z,84.01
2017-12-22T13:56:35.944Z,84.3
2017-12-22T13:57:44.774Z,84.59
2017-12-22T13:58:53.604Z,83.73
2017-12-22T14:00:02.437Z,84.21
2017-12-22T14:01:11.265Z,84.49
2017-12-22T14:02:20.410Z,84.49
2017-12-22T14:03:29.265Z,84.4
2017-12-22T14:04:38.344Z,84.21
2017-12-22T14:05:47.173Z,84.49
2017-12-22T14:06:56.484Z,84.49
2017-12-22T14:08:05.713Z,84.49
2017-12-22T14:09:14.536Z,84.49
2017-12-22T14:10:23.367Z,84.59
2017-12-22T14:11:32.195Z,84.4
2017-12-22T14:12:41.023Z,84.4
2017-12-22T14:13:50.153Z,84.4
2017-12-22T14:14:58.984Z,84.59
2017-12-22T14:16:07.811Z,84.21
2017-12-22T14:17:16.751Z,84.59
2017-12-22T14:18:25.528Z,84.4
2017-12-22T14:19:34.407Z,84.4
2017-12-22T14:20:43.234Z,84.68
2017-12-22T14:21:52.062Z,84.78
2017-12-22T14:23:00.891Z,84.68
2017-12-22T14:24:09.724Z,84.59
2017-12-22T14:25:18.703Z,84.59
2017-12-22T14:26:27.533Z,84.78
2017-12-22T14:27:36.364Z,84.87
2017-12-22T14:28:45.202Z,84.78
2017-12-22T14:29:54.066Z,84.78
2017-12-22T14:31:02.905Z,84.78
2017-12-22T14:32:11.733Z,84.78
2017-12-22T14:33:20.563Z,84.97
2017-12-22T14:34:29.423Z,84.59
2017-12-22T14:35:38.253Z,84.78
2017-12-22T14:36:47.079Z,84.4
2017-12-22T14:37:55.911Z,84.68
2017-12-22T14:39:04.741Z,84.59
2017-12-22T14:40:13.567Z,84.78
2017-12-22T14:41:22.408Z,84.59
2017-12-22T14:42:31.284Z,84.91
2017-12-22T14:43:40.112Z,84.97
2017-12-22T14:44:48.942Z,84.53
2017-12-22T14:45:57.772Z,84.59
2017-12-22T14:47:06.599Z,84.59
2017-12-22T14:48:15.582Z,84.97
2017-12-22T14:49:24.414Z,84.97
2017-12-22T14:50:33.246Z,84.78
2017-12-22T14:51:42.072Z,84.59
2017-12-22T14:52:50.902Z,84.78
2017-12-22T14:53:59.892Z,84.87